createdAt,value
2017-11-27T00:00:56.858Z,1014.40
2017-11-27T00:01:56.815Z,1014.44
2017-11-27T00:02:56.783Z,1014.39
2017-11-27T00:03:56.738Z,1014.45
2017-11-27T00:04:56.692Z,1014.45
2017-11-27T00:05:56.663Z,1014.42
2017-11-27T00:06:56.613Z,1014.42
2017-11-27T00:07:56.570Z,1014.47
2017-11-27T00:08:56.535Z,1014.45
2017-11-27T00:09:56.490Z,1014.46
2017-11-27T00:10:56.458Z,1014.46
2017-11-27T00:11:56.408Z,1014.54
2017-11-27T00:12:56.368Z,1014.50
2017-11-27T00:13:56.331Z,1014.48
2017-11-27T00:14:56.293Z,1014.50
2017-11-27T00:15:56.258Z,1014.52
2017-11-27T00:16:56.217Z,1014.48
2017-11-27T00:17:56.168Z,1014.47
2017-11-27T00:18:56.217Z,1014.46
2017-11-27T00:19:56.166Z,1014.47
2017-11-27T00:20:56.045Z,1014.46
2017-11-27T00:21:56.005Z,1014.45
2017-11-27T00:22:55.974Z,1014.40
2017-11-27T00:23:55.924Z,1014.46
2017-11-27T00:24:55.882Z,1014.51
2017-11-27T00:25:55.841Z,1014.51
2017-11-27T00:26:55.804Z,1014.51
2017-11-27T00:27:55.764Z,1014.54
2017-11-27T00:28:55.720Z,1014.51
2017-11-27T00:29:55.678Z,1014.56
2017-11-27T00:30:55.647Z,1014.61
2017-11-27T00:31:55.600Z,1014.57
2017-11-27T00:32:55.558Z,1014.59
2017-11-27T00:33:55.518Z,1014.54
2017-11-27T00:34:55.487Z,1014.58
2017-11-27T00:35:55.445Z,1014.62
2017-11-27T00:36:55.400Z,1014.58
2017-11-27T00:37:55.374Z,1014.70
2017-11-27T00:38:55.315Z,1014.69
2017-11-27T00:39:55.312Z,1014.65
2017-11-27T00:40:55.235Z,1014.63
2017-11-27T00:41:55.196Z,1014.68
2017-11-27T00:42:55.159Z,1014.66
2017-11-27T00:43:55.114Z,1014.65
2017-11-27T00:44:55.070Z,1014.72
2017-11-27T00:45:55.037Z,1014.67
2017-11-27T00:46:54.990Z,1014.65
2017-11-27T00:47:54.952Z,1014.72
2017-11-27T00:48:54.913Z,1014.68
2017-11-27T00:49:54.869Z,1014.69
2017-11-27T00:50:54.848Z,1014.68
2017-11-27T00:51:54.792Z,1014.66
2017-11-27T00:52:54.747Z,1014.67
2017-11-27T00:53:54.710Z,1014.70
2017-11-27T00:54:54.689Z,1014.67
2017-11-27T00:55:54.627Z,1014.67
2017-11-27T00:56:54.589Z,1014.69
2017-11-27T00:57:54.566Z,1014.68
2017-11-27T00:58:54.551Z,1014.71
2017-11-27T00:59:54.465Z,1014.72
2017-11-27T01:00:54.427Z,1014.73
2017-11-27T01:01:54.406Z,1014.76
2017-11-27T01:02:54.377Z,1014.73
2017-11-27T01:03:54.316Z,1014.75
2017-11-27T01:04:54.268Z,1014.79
2017-11-27T01:05:54.230Z,1014.79
2017-11-27T01:06:54.184Z,1014.80
2017-11-27T01:07:54.147Z,1014.79
2017-11-27T01:08:54.111Z,1014.76
2017-11-27T01:09:54.077Z,1014.82
2017-11-27T01:10:54.055Z,1014.79
2017-11-27T01:11:53.987Z,1014.81
2017-11-27T01:12:53.930Z,1014.76
2017-11-27T01:13:53.898Z,1014.81
2017-11-27T01:14:53.881Z,1014.78
2017-11-27T01:15:53.852Z,1014.75
2017-11-27T01:16:53.794Z,1014.77
2017-11-27T01:17:53.760Z,1014.83
2017-11-27T01:18:53.712Z,1014.81
2017-11-27T01:19:53.657Z,1014.81
2017-11-27T01:20:53.613Z,1014.87
2017-11-27T01:21:53.624Z,1014.81
2017-11-27T01:22:53.536Z,1014.83
2017-11-27T01:23:53.504Z,1014.73
2017-11-27T01:24:53.457Z,1014.83
2017-11-27T01:25:53.411Z,1014.78
2017-11-27T01:26:53.370Z,1014.79
2017-11-27T01:27:53.335Z,1014.75
2017-11-27T01:28:53.298Z,1014.74
2017-11-27T01:29:53.252Z,1014.78
2017-11-27T01:30:53.216Z,1014.76
2017-11-27T01:31:53.197Z,1014.78
2017-11-27T01:32:53.126Z,1014.81
2017-11-27T01:33:53.085Z,1014.78
2017-11-27T01:34:53.056Z,1014.78
2017-11-27T01:35:53.004Z,1014.81
2017-11-27T01:36:52.966Z,1014.80
2017-11-27T01:37:52.922Z,1014.81
2017-11-27T01:38:52.882Z,1014.75
2017-11-27T01:39:52.842Z,1014.82
2017-11-27T01:40:52.804Z,1014.84
2017-11-27T01:41:52.765Z,1014.86
2017-11-27T01:42:52.721Z,1014.84
2017-11-27T01:43:52.683Z,1014.78
2017-11-27T01:44:52.642Z,1014.83
2017-11-27T01:45:52.599Z,1014.82
2017-11-27T01:46:52.565Z,1014.80
2017-11-27T01:47:52.519Z,1014.76
2017-11-27T01:48:52.484Z,1014.80
2017-11-27T01:49:52.443Z,1014.81
2017-11-27T01:50:52.401Z,1014.78
2017-11-27T01:51:52.359Z,1014.84
2017-11-27T01:52:52.331Z,1014.79
2017-11-27T01:53:52.276Z,1014.82
2017-11-27T01:54:52.241Z,1014.83
2017-11-27T01:55:52.194Z,1014.81
2017-11-27T01:56:52.181Z,1014.83
2017-11-27T01:57:52.114Z,1014.82
2017-11-27T01:58:52.076Z,1014.87
2017-11-27T01:59:52.037Z,1014.84
2017-11-27T02:00:51.993Z,1014.89
2017-11-27T02:01:51.954Z,1014.90
2017-11-27T02:02:51.921Z,1014.89
2017-11-27T02:03:51.876Z,1014.87
2017-11-27T02:04:51.830Z,1014.86
2017-11-27T02:05:51.810Z,1014.87
2017-11-27T02:06:51.755Z,1014.91
2017-11-27T02:07:51.713Z,1014.84
2017-11-27T02:08:51.670Z,1014.88
2017-11-27T02:09:51.627Z,1014.91
2017-11-27T02:10:51.622Z,1014.90
2017-11-27T02:11:51.548Z,1014.95
2017-11-27T02:12:51.506Z,1014.88
2017-11-27T02:13:51.476Z,1015.00
2017-11-27T02:14:51.426Z,1014.96
2017-11-27T02:15:51.389Z,1014.97
2017-11-27T02:16:51.346Z,1014.95
2017-11-27T02:17:51.311Z,1014.94
2017-11-27T02:18:51.264Z,1014.97
2017-11-27T02:19:51.229Z,1014.97
2017-11-27T02:20:51.189Z,1015.02
2017-11-27T02:21:51.148Z,1014.95
2017-11-27T02:22:51.105Z,1014.98
2017-11-27T02:23:51.061Z,1014.98
2017-11-27T02:24:51.021Z,1014.94
2017-11-27T02:25:50.981Z,1014.92
2017-11-27T02:26:50.939Z,1014.96
2017-11-27T02:27:50.900Z,1014.98
2017-11-27T02:28:50.854Z,1014.94
2017-11-27T02:29:50.830Z,1014.98
2017-11-27T02:30:50.780Z,1014.89
2017-11-27T02:31:50.735Z,1014.97
2017-11-27T02:32:50.691Z,1014.96
2017-11-27T02:33:50.657Z,1014.97
2017-11-27T02:34:50.624Z,1014.90
2017-11-27T02:35:50.573Z,1014.94
2017-11-27T02:36:50.533Z,1014.88
2017-11-27T02:37:50.496Z,1014.94
2017-11-27T02:38:50.455Z,1014.92
2017-11-27T02:39:50.420Z,1014.94
2017-11-27T02:40:50.370Z,1014.93
2017-11-27T02:41:50.330Z,1014.90
2017-11-27T02:42:50.293Z,1014.89
2017-11-27T02:43:50.257Z,1014.95
2017-11-27T02:44:50.207Z,1014.95
2017-11-27T02:45:50.169Z,1015.00
2017-11-27T02:46:50.130Z,1014.94
2017-11-27T02:47:50.100Z,1014.97
2017-11-27T02:48:50.045Z,1014.94
2017-11-27T02:49:50.005Z,1014.93
2017-11-27T02:50:49.972Z,1014.96
2017-11-27T02:51:49.926Z,1014.89
2017-11-27T02:52:49.880Z,1014.94
2017-11-27T02:53:49.842Z,1014.95
2017-11-27T02:54:49.801Z,1014.90
2017-11-27T02:55:49.767Z,1014.94
2017-11-27T02:56:49.729Z,1014.97
2017-11-27T02:57:49.680Z,1014.85
2017-11-27T02:58:49.641Z,1014.92
2017-11-27T02:59:49.609Z,1014.95
2017-11-27T03:00:49.556Z,1014.95
2017-11-27T03:01:49.519Z,1014.95
2017-11-27T03:02:49.478Z,1014.95
2017-11-27T03:03:49.439Z,1014.95
2017-11-27T03:04:49.403Z,1014.95
2017-11-27T03:05:49.358Z,1014.95
2017-11-27T03:06:49.316Z,1014.96
2017-11-27T03:07:49.296Z,1015.00
2017-11-27T03:08:49.245Z,1014.97
2017-11-27T03:09:49.193Z,1015.00
2017-11-27T03:10:49.172Z,1014.99
2017-11-27T03:11:49.113Z,1015.01
2017-11-27T03:12:49.074Z,1014.99
2017-11-27T03:13:49.030Z,1014.95
2017-11-27T03:14:48.991Z,1014.95
2017-11-27T03:15:48.965Z,1015.02
2017-11-27T03:16:48.909Z,1015.01
2017-11-27T03:17:48.877Z,1015.05
2017-11-27T03:18:48.840Z,1015.00
2017-11-27T03:19:48.787Z,1014.97
2017-11-27T03:20:48.744Z,1014.98
2017-11-27T03:21:48.706Z,1015.01
2017-11-27T03:22:48.665Z,1014.97
2017-11-27T03:23:48.626Z,1014.98
2017-11-27T03:24:48.612Z,1014.96
2017-11-27T03:25:48.552Z,1015.02
2017-11-27T03:26:48.503Z,1015.03
2017-11-27T03:27:48.471Z,1015.03
2017-11-27T03:28:48.424Z,1014.98
2017-11-27T03:29:48.385Z,1014.94
2017-11-27T03:30:48.377Z,1014.91
2017-11-27T03:31:48.352Z,1014.89
2017-11-27T03:32:48.261Z,1014.95
2017-11-27T03:33:48.225Z,1014.94
2017-11-27T03:34:48.228Z,1014.92
2017-11-27T03:35:48.156Z,1014.90
2017-11-27T03:36:48.191Z,1014.91
2017-11-27T03:37:48.065Z,1014.92
2017-11-27T03:38:48.024Z,1014.96
2017-11-27T03:39:47.981Z,1014.94
2017-11-27T03:40:47.933Z,1014.94
2017-11-27T03:41:47.894Z,1014.92
2017-11-27T03:42:47.904Z,1014.95
2017-11-27T03:43:47.828Z,1014.99
2017-11-27T03:44:47.780Z,1015.00
2017-11-27T03:45:47.735Z,1014.96
2017-11-27T03:46:47.697Z,1014.95
2017-11-27T03:47:47.650Z,1015.01
2017-11-27T03:48:47.611Z,1014.96
2017-11-27T03:49:47.586Z,1014.94
2017-11-27T03:50:47.540Z,1014.95
2017-11-27T03:51:47.500Z,1014.91
2017-11-27T03:52:47.477Z,1014.97
2017-11-27T03:53:47.425Z,1014.95
2017-11-27T03:54:47.412Z,1014.96
2017-11-27T03:55:47.449Z,1014.92
2017-11-27T03:56:47.286Z,1014.96
2017-11-27T03:57:47.271Z,1014.96
2017-11-27T03:58:47.207Z,1014.95
2017-11-27T03:59:47.173Z,1014.90
2017-11-27T04:00:47.825Z,1014.86
2017-11-27T04:01:47.081Z,1014.87
2017-11-27T04:02:47.039Z,1014.84
2017-11-27T04:03:47.001Z,1014.81
2017-11-27T04:04:46.960Z,1014.81
2017-11-27T04:05:46.927Z,1014.80
2017-11-27T04:06:46.883Z,1014.77
2017-11-27T04:07:46.838Z,1014.78
2017-11-27T04:08:46.793Z,1014.77
2017-11-27T04:09:46.761Z,1014.69
2017-11-27T04:10:46.713Z,1014.74
2017-11-27T04:11:46.681Z,1014.68
2017-11-27T04:12:46.640Z,1014.69
2017-11-27T04:13:46.592Z,1014.63
2017-11-27T04:14:46.549Z,1014.71
2017-11-27T04:15:46.511Z,1014.76
2017-11-27T04:16:46.481Z,1014.73
2017-11-27T04:17:46.431Z,1014.75
2017-11-27T04:18:46.391Z,1014.69
2017-11-27T04:19:46.350Z,1014.76
2017-11-27T04:20:46.311Z,1014.72
2017-11-27T04:21:46.270Z,1014.71
2017-11-27T04:22:46.227Z,1014.75
2017-11-27T04:23:46.183Z,1014.73
2017-11-27T04:24:46.144Z,1014.77
2017-11-27T04:25:46.118Z,1014.75
2017-11-27T04:26:46.073Z,1014.75
2017-11-27T04:27:46.029Z,1014.80
2017-11-27T04:28:45.979Z,1014.77
2017-11-27T04:29:45.941Z,1014.81
2017-11-27T04:30:45.897Z,1014.74
2017-11-27T04:31:45.862Z,1014.72
2017-11-27T04:32:45.822Z,1014.72
2017-11-27T04:33:45.776Z,1014.72
2017-11-27T04:34:45.735Z,1014.73
2017-11-27T04:35:45.696Z,1014.74
2017-11-27T04:36:45.660Z,1014.66
2017-11-27T04:37:45.622Z,1014.72
2017-11-27T04:38:45.580Z,1014.73
2017-11-27T04:39:45.532Z,1014.79
2017-11-27T04:40:45.491Z,1014.72
2017-11-27T04:41:45.449Z,1014.71
2017-11-27T04:42:45.425Z,1014.76
2017-11-27T04:43:45.388Z,1014.69
2017-11-27T04:44:45.326Z,1014.69
2017-11-27T04:45:45.289Z,1014.68
2017-11-27T04:46:45.245Z,1014.75
2017-11-27T04:47:45.211Z,1014.71
2017-11-27T04:48:45.163Z,1014.65
2017-11-27T04:49:45.126Z,1014.70
2017-11-27T04:50:45.091Z,1014.67
2017-11-27T04:51:45.043Z,1014.68
2017-11-27T04:52:45.000Z,1014.71
2017-11-27T04:53:44.962Z,1014.70
2017-11-27T04:54:44.924Z,1014.73
2017-11-27T04:55:44.881Z,1014.72
2017-11-27T04:56:44.837Z,1014.71
2017-11-27T04:57:44.800Z,1014.68
2017-11-27T04:58:44.761Z,1014.72
2017-11-27T04:59:44.717Z,1014.73
2017-11-27T05:00:44.677Z,1014.77
2017-11-27T05:01:44.632Z,1014.77
2017-11-27T05:02:44.595Z,1014.78
2017-11-27T05:03:44.555Z,1014.79
2017-11-27T05:04:44.521Z,1014.77
2017-11-27T05:05:44.471Z,1014.80
2017-11-27T05:06:44.432Z,1014.81
2017-11-27T05:07:44.389Z,1014.82
2017-11-27T05:08:44.345Z,1014.80
2017-11-27T05:09:44.305Z,1014.82
2017-11-27T05:10:44.272Z,1014.79
2017-11-27T05:11:44.227Z,1014.77
2017-11-27T05:12:44.187Z,1014.76
2017-11-27T05:13:44.145Z,1014.80
2017-11-27T05:14:44.101Z,1014.75
2017-11-27T05:15:44.066Z,1014.74
2017-11-27T05:16:44.017Z,1014.70
2017-11-27T05:17:43.980Z,1014.72
2017-11-27T05:18:43.938Z,1014.66
2017-11-27T05:19:43.899Z,1014.66
2017-11-27T05:20:43.864Z,1014.70
2017-11-27T05:21:43.814Z,1014.67
2017-11-27T05:22:43.780Z,1014.62
2017-11-27T05:23:43.742Z,1014.66
2017-11-27T05:24:43.693Z,1014.69
2017-11-27T05:25:43.655Z,1014.64
2017-11-27T05:26:44.241Z,1014.65
2017-11-27T05:27:43.575Z,1014.61
2017-11-27T05:28:43.528Z,1014.65
2017-11-27T05:29:43.488Z,1014.63
2017-11-27T05:30:43.451Z,1014.65
2017-11-27T05:31:43.408Z,1014.64
2017-11-27T05:32:43.367Z,1014.66
2017-11-27T05:33:43.324Z,1014.66
2017-11-27T05:34:43.288Z,1014.63
2017-11-27T05:35:43.245Z,1014.62
2017-11-27T05:36:43.203Z,1014.60
2017-11-27T05:37:43.163Z,1014.65
2017-11-27T05:38:43.128Z,1014.65
2017-11-27T05:39:43.089Z,1014.65
2017-11-27T05:40:43.055Z,1014.63
2017-11-27T05:41:43.001Z,1014.61
2017-11-27T05:42:42.967Z,1014.55
2017-11-27T05:43:42.918Z,1014.59
2017-11-27T05:44:42.878Z,1014.62
2017-11-27T05:45:42.835Z,1014.62
2017-11-27T05:46:42.797Z,1014.59
2017-11-27T05:47:42.760Z,1014.59
2017-11-27T05:48:42.714Z,1014.63
2017-11-27T05:49:42.673Z,1014.62
2017-11-27T05:50:42.647Z,1014.61
2017-11-27T05:51:42.591Z,1014.60
2017-11-27T05:52:42.564Z,1014.61
2017-11-27T05:53:42.525Z,1014.62
2017-11-27T05:54:42.500Z,1014.60
2017-11-27T05:55:42.479Z,1014.59
2017-11-27T05:56:42.390Z,1014.54
2017-11-27T05:57:42.355Z,1014.50
2017-11-27T05:58:42.305Z,1014.53
2017-11-27T05:59:42.278Z,1014.52
2017-11-27T06:00:42.280Z,1014.50
2017-11-27T06:01:42.187Z,1014.49
2017-11-27T06:02:42.159Z,1014.50
2017-11-27T06:03:42.103Z,1014.49
2017-11-27T06:04:42.092Z,1014.46
2017-11-27T06:05:42.097Z,1014.45
2017-11-27T06:06:42.006Z,1014.43
2017-11-27T06:07:41.952Z,1014.43
2017-11-27T06:08:41.914Z,1014.39
2017-11-27T06:09:41.861Z,1014.33
2017-11-27T06:10:41.820Z,1014.39
2017-11-27T06:11:41.784Z,1014.39
2017-11-27T06:12:41.799Z,1014.36
2017-11-27T06:13:41.708Z,1014.39
2017-11-27T06:14:41.667Z,1014.43
2017-11-27T06:15:41.610Z,1014.39
2017-11-27T06:16:41.569Z,1014.42
2017-11-27T06:17:41.558Z,1014.44
2017-11-27T06:18:41.526Z,1014.42
2017-11-27T06:19:41.486Z,1014.43
2017-11-27T06:20:41.397Z,1014.44
2017-11-27T06:21:41.367Z,1014.41
2017-11-27T06:22:41.350Z,1014.42
2017-11-27T06:23:41.298Z,1014.44
2017-11-27T06:24:41.273Z,1014.40
2017-11-27T06:25:41.203Z,1014.42
2017-11-27T06:26:41.161Z,1014.49
2017-11-27T06:27:41.132Z,1014.50
2017-11-27T06:28:41.070Z,1014.49
2017-11-27T06:29:41.065Z,1014.52
2017-11-27T06:30:41.852Z,1014.52
2017-11-27T06:31:40.941Z,1014.57
2017-11-27T06:32:40.900Z,1014.53
2017-11-27T06:33:40.860Z,1014.56
2017-11-27T06:34:40.820Z,1014.56
2017-11-27T06:35:40.778Z,1014.59
2017-11-27T06:36:40.737Z,1014.61
2017-11-27T06:37:40.695Z,1014.58
2017-11-27T06:38:40.658Z,1014.60
2017-11-27T06:39:40.624Z,1014.61
2017-11-27T06:40:40.570Z,1014.58
2017-11-27T06:41:40.528Z,1014.61
2017-11-27T06:42:40.491Z,1014.60
2017-11-27T06:43:40.447Z,1014.62
2017-11-27T06:44:40.440Z,1014.58
2017-11-27T06:45:40.369Z,1014.58
2017-11-27T06:46:40.327Z,1014.53
2017-11-27T06:47:40.281Z,1014.53
2017-11-27T06:48:40.252Z,1014.52
2017-11-27T06:49:40.195Z,1014.51
2017-11-27T06:50:40.156Z,1014.52
2017-11-27T06:51:40.122Z,1014.52
2017-11-27T06:52:40.076Z,1014.55
2017-11-27T06:53:40.038Z,1014.53
2017-11-27T06:54:39.989Z,1014.54
2017-11-27T06:55:39.952Z,1014.52
2017-11-27T06:56:39.905Z,1014.59
2017-11-27T06:57:39.864Z,1014.56
2017-11-27T06:58:39.825Z,1014.56
2017-11-27T06:59:39.780Z,1014.51
2017-11-27T07:00:39.755Z,1014.53
2017-11-27T07:01:39.705Z,1014.59
2017-11-27T07:02:39.654Z,1014.60
2017-11-27T07:03:39.617Z,1014.60
2017-11-27T07:04:39.587Z,1014.60
2017-11-27T07:05:39.535Z,1014.57
2017-11-27T07:06:39.488Z,1014.59
2017-11-27T07:07:39.448Z,1014.60
2017-11-27T07:08:39.406Z,1014.66
2017-11-27T07:09:39.361Z,1014.62
2017-11-27T07:10:39.326Z,1014.63
2017-11-27T07:11:39.279Z,1014.67
2017-11-27T07:12:39.254Z,1014.64
2017-11-27T07:13:39.194Z,1014.59
2017-11-27T07:14:39.156Z,1014.61
2017-11-27T07:15:39.119Z,1014.58
2017-11-27T07:16:39.067Z,1014.62
2017-11-27T07:17:39.027Z,1014.64
2017-11-27T07:18:38.985Z,1014.60
2017-11-27T07:19:38.944Z,1014.60
2017-11-27T07:20:38.902Z,1014.57
2017-11-27T07:21:38.875Z,1014.63
2017-11-27T07:22:38.821Z,1014.56
2017-11-27T07:23:38.778Z,1014.58
2017-11-27T07:24:38.736Z,1014.56
2017-11-27T07:25:38.694Z,1014.54
2017-11-27T07:26:38.675Z,1014.56
2017-11-27T07:27:38.611Z,1014.52
2017-11-27T07:28:38.573Z,1014.52
2017-11-27T07:29:38.528Z,1014.52
2017-11-27T07:30:38.485Z,1014.51
2017-11-27T07:31:38.448Z,1014.49
2017-11-27T07:32:38.422Z,1014.52
2017-11-27T07:33:38.360Z,1014.52
2017-11-27T07:34:38.320Z,1014.48
2017-11-27T07:35:38.276Z,1014.48
2017-11-27T07:36:38.234Z,1014.44
2017-11-27T07:37:38.193Z,1014.49
2017-11-27T07:38:38.152Z,1014.44
2017-11-27T07:39:38.114Z,1014.41
2017-11-27T07:40:38.067Z,1014.41
2017-11-27T07:41:38.028Z,1014.44
2017-11-27T07:42:37.985Z,1014.46
2017-11-27T07:43:37.946Z,1014.47
2017-11-27T07:44:37.907Z,1014.48
2017-11-27T07:45:37.861Z,1014.47
2017-11-27T07:46:37.820Z,1014.40
2017-11-27T07:47:37.778Z,1014.40
2017-11-27T07:48:37.734Z,1014.42
2017-11-27T07:49:37.694Z,1014.42
2017-11-27T07:50:37.653Z,1014.43
2017-11-27T07:51:37.613Z,1014.41
2017-11-27T07:52:37.572Z,1014.40
2017-11-27T07:53:37.530Z,1014.46
2017-11-27T07:54:37.487Z,1014.46
2017-11-27T07:55:37.455Z,1014.44
2017-11-27T07:56:37.407Z,1014.43
2017-11-27T07:57:37.365Z,1014.46
2017-11-27T07:58:37.325Z,1014.47
2017-11-27T07:59:37.288Z,1014.48
2017-11-27T08:00:37.259Z,1014.43
2017-11-27T08:01:37.200Z,1014.40
2017-11-27T08:02:37.163Z,1014.45
2017-11-27T08:03:37.118Z,1014.40
2017-11-27T08:04:37.080Z,1014.39
2017-11-27T08:05:37.035Z,1014.42
2017-11-27T08:06:36.995Z,1014.39
2017-11-27T08:07:36.958Z,1014.43
2017-11-27T08:08:36.918Z,1014.45
2017-11-27T08:09:36.872Z,1014.42
2017-11-27T08:10:36.833Z,1014.50
2017-11-27T08:11:36.787Z,1014.51
2017-11-27T08:12:36.746Z,1014.49
2017-11-27T08:13:36.709Z,1014.49
2017-11-27T08:14:36.674Z,1014.46
2017-11-27T08:15:36.627Z,1014.48
2017-11-27T08:16:36.633Z,1014.45
2017-11-27T08:17:36.598Z,1014.39
2017-11-27T08:18:36.501Z,1014.37
2017-11-27T08:19:36.482Z,1014.33
2017-11-27T08:20:36.418Z,1014.31
2017-11-27T08:21:36.380Z,1014.32
2017-11-27T08:22:36.351Z,1014.34
2017-11-27T08:23:36.300Z,1014.30
2017-11-27T08:24:36.349Z,1014.35
2017-11-27T08:25:36.217Z,1014.36
2017-11-27T08:26:36.184Z,1014.33
2017-11-27T08:27:36.169Z,1014.29
2017-11-27T08:28:36.098Z,1014.31
2017-11-27T08:29:36.077Z,1014.29
2017-11-27T08:30:36.068Z,1014.25
2017-11-27T08:31:35.988Z,1014.22
2017-11-27T08:32:35.946Z,1014.16
2017-11-27T08:33:35.902Z,1014.19
2017-11-27T08:34:35.854Z,1014.20
2017-11-27T08:35:35.805Z,1014.23
2017-11-27T08:36:35.780Z,1014.24
2017-11-27T08:37:35.724Z,1014.26
2017-11-27T08:38:35.685Z,1014.22
2017-11-27T08:39:35.664Z,1014.28
2017-11-27T08:40:35.604Z,1014.31
2017-11-27T08:41:35.560Z,1014.26
2017-11-27T08:42:35.546Z,1014.22
2017-11-27T08:43:35.499Z,1014.20
2017-11-27T08:44:35.469Z,1014.17
2017-11-27T08:45:35.413Z,1014.17
2017-11-27T08:46:35.375Z,1014.12
2017-11-27T08:47:35.333Z,1014.08
2017-11-27T08:48:35.374Z,1014.15
2017-11-27T08:49:35.243Z,1014.10
2017-11-27T08:50:35.199Z,1014.10
2017-11-27T08:51:35.206Z,1014.10
2017-11-27T08:52:35.115Z,1014.11
2017-11-27T08:53:35.076Z,1014.09
2017-11-27T08:54:35.041Z,1014.06
2017-11-27T08:55:35.086Z,1014.04
2017-11-27T08:56:34.983Z,1014.06
2017-11-27T08:57:34.920Z,1014.04
2017-11-27T08:58:34.874Z,1014.00
2017-11-27T08:59:35.380Z,1013.97
2017-11-27T09:00:34.801Z,1014.02
2017-11-27T09:01:34.752Z,1013.93
2017-11-27T09:02:34.720Z,1013.96
2017-11-27T09:03:34.686Z,1013.96
2017-11-27T09:04:34.633Z,1013.89
2017-11-27T09:05:34.595Z,1013.92
2017-11-27T09:06:34.551Z,1013.86
2017-11-27T09:07:34.509Z,1013.84
2017-11-27T09:08:34.470Z,1013.86
2017-11-27T09:09:34.431Z,1013.86
2017-11-27T09:10:34.388Z,1013.87
2017-11-27T09:11:34.350Z,1013.81
2017-11-27T09:12:34.307Z,1013.85
2017-11-27T09:13:34.264Z,1013.79
2017-11-27T09:14:34.226Z,1013.78
2017-11-27T09:15:34.191Z,1013.81
2017-11-27T09:16:34.147Z,1013.83
2017-11-27T09:17:34.131Z,1013.82
2017-11-27T09:18:34.063Z,1013.82
2017-11-27T09:19:34.024Z,1013.84
2017-11-27T09:20:33.987Z,1013.79
2017-11-27T09:21:33.971Z,1013.76
2017-11-27T09:22:33.903Z,1013.75
2017-11-27T09:23:33.867Z,1013.71
2017-11-27T09:24:33.835Z,1013.69
2017-11-27T09:25:33.791Z,1013.66
2017-11-27T09:26:33.743Z,1013.72
2017-11-27T09:27:33.710Z,1013.67
2017-11-27T09:28:33.678Z,1013.65
2017-11-27T09:29:33.623Z,1013.63
2017-11-27T09:30:33.580Z,1013.64
2017-11-27T09:31:33.540Z,1013.67
2017-11-27T09:32:33.523Z,1013.67
2017-11-27T09:33:33.462Z,1013.72
2017-11-27T09:34:33.425Z,1013.69
2017-11-27T09:35:33.381Z,1013.68
2017-11-27T09:36:33.340Z,1013.64
2017-11-27T09:37:33.300Z,1013.60
2017-11-27T09:38:33.260Z,1013.60
2017-11-27T09:39:33.221Z,1013.63
2017-11-27T09:40:33.186Z,1013.64
2017-11-27T09:41:33.145Z,1013.65
2017-11-27T09:42:33.100Z,1013.61
2017-11-27T09:43:33.094Z,1013.52
2017-11-27T09:44:33.026Z,1013.47
2017-11-27T09:45:32.978Z,1013.42
2017-11-27T09:46:32.952Z,1013.43
2017-11-27T09:47:32.907Z,1013.34
2017-11-27T09:48:32.861Z,1013.40
2017-11-27T09:49:32.819Z,1013.40
2017-11-27T09:50:32.788Z,1013.29
2017-11-27T09:51:32.740Z,1013.32
2017-11-27T09:52:32.699Z,1013.33
2017-11-27T09:53:32.657Z,1013.29
2017-11-27T09:54:32.622Z,1013.27
2017-11-27T09:55:32.588Z,1013.31
2017-11-27T09:56:32.536Z,1013.24
2017-11-27T09:57:32.507Z,1013.29
2017-11-27T09:58:32.466Z,1013.28
2017-11-27T09:59:32.421Z,1013.25
2017-11-27T10:00:32.378Z,1013.26
2017-11-27T10:01:32.336Z,1013.25
2017-11-27T10:02:32.300Z,1013.20
2017-11-27T10:03:32.260Z,1013.23
2017-11-27T10:04:32.220Z,1013.21
2017-11-27T10:05:32.176Z,1013.18
2017-11-27T10:06:32.142Z,1013.18
2017-11-27T10:07:32.097Z,1013.16
2017-11-27T10:08:32.060Z,1013.16
2017-11-27T10:09:32.036Z,1013.13
2017-11-27T10:10:31.984Z,1013.09
2017-11-27T10:11:31.936Z,1013.08
2017-11-27T10:12:31.895Z,1013.01
2017-11-27T10:13:31.861Z,1013.01
2017-11-27T10:14:31.819Z,1012.99
2017-11-27T10:15:31.777Z,1012.94
2017-11-27T10:16:31.737Z,1012.93
2017-11-27T10:17:31.698Z,1012.89
2017-11-27T10:18:31.664Z,1012.82
2017-11-27T10:19:31.621Z,1012.88
2017-11-27T10:20:31.583Z,1012.80
2017-11-27T10:21:31.539Z,1012.77
2017-11-27T10:22:31.497Z,1012.79
2017-11-27T10:23:31.462Z,1012.77
2017-11-27T10:24:31.429Z,1012.77
2017-11-27T10:25:31.395Z,1012.78
2017-11-27T10:26:31.339Z,1012.71
2017-11-27T10:27:31.345Z,1012.75
2017-11-27T10:28:31.269Z,1012.73
2017-11-27T10:29:31.221Z,1012.74
2017-11-27T10:30:31.188Z,1012.67
2017-11-27T10:31:31.142Z,1012.70
2017-11-27T10:32:31.102Z,1012.65
2017-11-27T10:33:31.064Z,1012.60
2017-11-27T10:34:31.029Z,1012.58
2017-11-27T10:35:30.990Z,1012.48
2017-11-27T10:36:30.945Z,1012.50
2017-11-27T10:37:30.908Z,1012.46
2017-11-27T10:38:30.866Z,1012.40
2017-11-27T10:39:30.825Z,1012.38
2017-11-27T10:40:30.791Z,1012.40
2017-11-27T10:41:30.754Z,1012.35
2017-11-27T10:42:30.706Z,1012.34
2017-11-27T10:43:30.666Z,1012.40
2017-11-27T10:44:30.626Z,1012.44
2017-11-27T10:45:30.586Z,1012.36
2017-11-27T10:46:30.557Z,1012.37
2017-11-27T10:47:30.515Z,1012.33
2017-11-27T10:48:30.467Z,1012.38
2017-11-27T10:49:30.693Z,1012.37
2017-11-27T10:50:30.422Z,1012.39
2017-11-27T10:51:30.352Z,1012.43
2017-11-27T10:52:30.318Z,1012.33
2017-11-27T10:53:30.282Z,1012.34
2017-11-27T10:54:30.305Z,1012.27
2017-11-27T10:55:30.282Z,1012.34
2017-11-27T10:56:30.210Z,1012.35
2017-11-27T10:57:30.206Z,1012.31
2017-11-27T10:58:30.113Z,1012.35
2017-11-27T10:59:30.061Z,1012.27
2017-11-27T11:00:30.167Z,1012.23
2017-11-27T11:01:30.011Z,1012.27
2017-11-27T11:02:29.969Z,1012.19
2017-11-27T11:03:29.883Z,1012.18
2017-11-27T11:04:29.862Z,1012.20
2017-11-27T11:05:29.801Z,1012.19
2017-11-27T11:06:29.794Z,1012.19
2017-11-27T11:07:29.739Z,1012.16
2017-11-27T11:08:29.703Z,1012.11
2017-11-27T11:09:29.656Z,1012.14
2017-11-27T11:10:29.651Z,1012.13
2017-11-27T11:11:29.569Z,1012.08
2017-11-27T11:12:29.578Z,1012.11
2017-11-27T11:13:29.553Z,1012.05
2017-11-27T11:14:29.479Z,1012.01
2017-11-27T11:15:29.413Z,1012.03
2017-11-27T11:16:29.368Z,1012.03
2017-11-27T11:17:29.338Z,1011.95
2017-11-27T11:18:29.320Z,1012.04
2017-11-27T11:19:29.280Z,1011.92
2017-11-27T11:20:29.221Z,1011.87
2017-11-27T11:21:29.199Z,1011.93
2017-11-27T11:22:29.205Z,1011.96
2017-11-27T11:23:29.102Z,1011.86
2017-11-27T11:24:29.061Z,1011.75
2017-11-27T11:25:29.022Z,1011.80
2017-11-27T11:26:29.005Z,1011.87
2017-11-27T11:27:28.967Z,1011.79
2017-11-27T11:28:28.906Z,1011.83
2017-11-27T11:29:28.892Z,1011.73
2017-11-27T11:30:28.820Z,1011.78
2017-11-27T11:31:28.784Z,1011.68
2017-11-27T11:32:28.740Z,1011.65
2017-11-27T11:33:28.701Z,1011.69
2017-11-27T11:34:28.662Z,1011.64
2017-11-27T11:35:28.622Z,1011.69
2017-11-27T11:36:28.584Z,1011.57
2017-11-27T11:37:28.548Z,1011.53
2017-11-27T11:38:28.504Z,1011.55
2017-11-27T11:39:28.472Z,1011.49
2017-11-27T11:40:28.423Z,1011.46
2017-11-27T11:41:28.384Z,1011.48
2017-11-27T11:42:28.346Z,1011.42
2017-11-27T11:43:28.343Z,1011.40
2017-11-27T11:44:28.317Z,1011.31
2017-11-27T11:45:28.265Z,1011.32
2017-11-27T11:46:28.199Z,1011.31
2017-11-27T11:47:28.147Z,1011.28
2017-11-27T11:48:28.108Z,1011.26
2017-11-27T11:49:28.074Z,1011.26
2017-11-27T11:50:28.035Z,1011.25
2017-11-27T11:51:27.994Z,1011.23
2017-11-27T11:52:27.964Z,1011.18
2017-11-27T11:53:27.911Z,1011.14
2017-11-27T11:54:27.874Z,1011.13
2017-11-27T11:55:27.858Z,1011.06
2017-11-27T11:56:27.890Z,1011.06
2017-11-27T11:57:27.765Z,1011.07
2017-11-27T11:58:27.757Z,1011.02
2017-11-27T11:59:27.705Z,1010.91
2017-11-27T12:00:27.656Z,1010.96
2017-11-27T12:01:27.611Z,1010.86
2017-11-27T12:02:27.566Z,1010.91
2017-11-27T12:03:27.521Z,1010.89
2017-11-27T12:04:27.482Z,1010.88
2017-11-27T12:05:27.523Z,1010.91